Airfield :
LOGIN :

Register | Disclaimer

   EN    FR    IT 

 










Legend :    VFR   Marginal VFR   IFR   Intensive IFR   Very Intensive IFR
Visi :
Ceiling :
>= 8 km
>= 3000ft
5 to 8 km
1000 to 3000 ft
1500m to 5 km
500 to 1000 ft
800 to 1500m
200 to 500 ft
< 800m
< 200 ft
Symbols :   Thunderstorms  Fog  Heavy snow  Heavy precipitations  Wind > 20 kt
SIGMETs :     Misc.  Thunderstorms  Icing  Turbulence  Mountain Waves  Volcanic Ashes






- Airport Elevation : 602 ft
- IATA code : NVS


LFQG - Nevers

CURRENT METAR :
  • 171300Z AUTO 34010KT 310V010 9999 FEW010/// BKN042/// BKN050/// ///TCU 08/04 Q1015

EXPIRED METARs :
  • 171230Z AUTO 32013G25KT 280V350 9999 SCT033/// BKN042/// BKN050/// ///CB 11/04 Q1015
  • 171200Z AUTO 30009KT 270V330 9999 FEW033/// SCT082/// ///CB 11/06 Q1015
  • 171130Z AUTO 29012KT 9999 -RA FEW027/// SCT034/// BKN062/// ///TCU 07/04 Q1016
  • 171100Z AUTO 28006KT 9999 -RA FEW015/// SCT025/// BKN039/// ///CB 08/05 Q1016
  • 171030Z AUTO VRB06KT 9999 BKN019/// OVC025/// ///TCU 08/06 Q1016
  • 171000Z AUTO 26009KT 9999 -RA BKN015/// BKN022/// OVC033/// ///TCU 08/05 Q1016
  • 170930Z AUTO 26009KT 220V310 9999 BKN015/// OVC030/// ///CB 09/06 Q1016
  • 170900Z AUTO 28008KT 9999 BKN013 OVC019 08/06 Q1017
  • 170830Z AUTO 29008KT 9999 BKN010 OVC034 08/06 Q1016

TAF N/A



MET'MAP, your aeronautical weather chart ! - Copyright ORBIFLY December 2007 - Disclaimer

ORBIFLY MET'MAP TEAM :

Programming & Development : Alexandra Zaïnal
Original concept : Baudouin d'Aumeries
Technical & hardware support : Manuel Goepfert
Assistance : Marc-Olivier Méhu




SOURCES & CREDITS :

   NOAA